Time;durP1;ratioP1;P1;durP2;ratioP2;P2;SDS_P1;SDS_P2;PMS_P1;PMS_P2;Temp;Humidity;BMP_temperature;BMP_pressure;BME280_temperature;BME280_humidity;BME280_pressure;Samples;Min_cycle;Max_cycle;Signal;HPM_P1;HPM_P2
2022/06/11 00:01:13;;;;;;;15.20;6.95;;;;;;;9.97;100.00;96184.41;5025784;28;20523;-75
2022/06/11 00:03:40;;;;;;;13.88;6.68;;;;;;;9.92;100.00;96171.22;5032880;28;20045;-75
2022/06/11 00:06:06;;;;;;;14.07;7.47;;;;;;;9.86;100.00;96179.06;5031968;28;20064;-76
2022/06/11 00:08:32;;;;;;;13.13;6.82;;;;;;;9.83;100.00;96179.56;5028864;28;20041;-76
2022/06/11 00:10:58;;;;;;;13.40;7.50;;;;;;;9.74;100.00;96175.78;5031071;28;20538;-76
2022/06/11 00:13:24;;;;;;;12.88;6.57;;;;;;;9.79;100.00;96178.47;5029591;28;20057;-76
2022/06/11 00:15:51;;;;;;;13.32;6.60;;;;;;;9.72;100.00;96167.34;5031492;28;20060;-76
2022/06/11 00:18:18;;;;;;;21.23;7.53;;;;;;;9.68;100.00;96179.38;5031845;28;20037;-76
2022/06/11 00:20:44;;;;;;;14.52;6.75;;;;;;;9.70;100.00;96172.84;5027011;28;20041;-76
2022/06/11 00:23:10;;;;;;;15.95;6.70;;;;;;;9.71;100.00;96171.00;5032238;28;20116;-76
2022/06/11 00:25:35;;;;;;;13.55;7.35;;;;;;;9.66;100.00;96173.59;5032064;28;20566;-76
2022/06/11 00:28:05;;;;;;;14.88;7.38;;;;;;;9.63;100.00;96174.88;5031179;28;20068;-76
2022/06/11 00:30:32;;;;;;;17.63;7.45;;;;;;;9.63;100.00;96168.84;5029300;28;20122;-76
2022/06/11 00:32:57;;;;;;;13.05;6.97;;;;;;;9.58;100.00;96166.16;5031167;28;20041;-76
2022/06/11 00:35:24;;;;;;;12.05;6.38;;;;;;;9.50;100.00;96160.28;5032225;28;20045;-76
2022/06/11 00:37:50;;;;;;;14.93;6.93;;;;;;;9.53;100.00;96165.03;5027658;28;20511;-76
2022/06/11 00:40:19;;;;;;;13.07;6.75;;;;;;;9.47;100.00;96166.03;5031867;28;20049;-76
2022/06/11 00:42:45;;;;;;;10.27;6.55;;;;;;;9.40;100.00;96160.19;5030554;28;20087;-76
2022/06/11 00:45:29;;;;;;;14.23;6.90;;;;;;;9.36;100.00;96164.31;5031897;28;20454;-76
2022/06/11 00:48:00;;;;;;;12.25;6.82;;;;;;;9.26;100.00;96165.00;5031074;28;20053;-75
2022/06/11 00:50:46;;;;;;;18.77;6.65;;;;;;;9.21;100.00;96161.50;5029865;28;20045;-75
2022/06/11 00:53:21;;;;;;;15.02;7.20;;;;;;;9.20;100.00;96158.09;5030853;28;20627;-76
2022/06/11 00:55:49;;;;;;;16.15;6.53;;;;;;;9.29;100.00;96158.47;5031983;28;20052;-75
2022/06/11 00:58:22;;;;;;;11.10;6.55;;;;;;;9.33;100.00;96165.59;5029154;28;20040;-76
2022/06/11 01:00:53;;;;;;;14.77;6.68;;;;;;;9.26;100.00;96151.09;5030435;28;20697;-76
2022/06/11 01:03:24;;;;;;;15.65;7.75;;;;;;;9.21;100.00;96156.25;5031431;28;20053;-76
2022/06/11 01:06:24;;;;;;;10.45;5.90;;;;;;;9.18;100.00;96132.09;5031160;28;20037;-76
2022/06/11 01:09:00;;;;;;;12.80;6.43;;;;;;;9.23;100.00;96148.94;5028514;28;20057;-76
2022/06/11 01:11:30;;;;;;;14.40;7.18;;;;;;;9.14;100.00;96152.00;5025493;28;20044;-76
2022/06/11 01:14:07;;;;;;;11.70;6.70;;;;;;;9.07;100.00;96148.75;5025615;28;20103;-75
2022/06/11 01:16:45;;;;;;;10.98;6.25;;;;;;;9.08;100.00;96146.91;5031389;28;20037;-75
2022/06/11 01:19:44;;;;;;;12.25;6.25;;;;;;;9.05;100.00;96140.34;5030291;28;20046;-75
2022/06/11 01:22:18;;;;;;;12.20;6.60;;;;;;;9.03;100.00;96139.78;5015616;28;20130;-75
2022/06/11 01:25:09;;;;;;;10.32;6.40;;;;;;;8.98;100.00;96142.34;5029655;28;20434;-75
2022/06/11 01:27:46;;;;;;;9.75;5.75;;;;;;;8.96;100.00;96144.41;5035442;28;20183;-75
2022/06/11 01:30:38;;;;;;;11.68;6.53;;;;;;;8.90;100.00;96145.38;5029705;28;20037;-75
2022/06/11 01:33:17;;;;;;;10.40;5.85;;;;;;;8.87;100.00;96138.00;5027838;28;20460;-75
2022/06/11 01:35:59;;;;;;;15.25;6.80;;;;;;;8.91;100.00;96139.91;5030144;28;20112;-77
2022/06/11 01:38:27;;;;;;;11.65;6.05;;;;;;;8.87;100.00;96141.41;5031054;28;20045;-77
2022/06/11 01:41:24;;;;;;;13.15;6.00;;;;;;;8.83;100.00;96141.13;5029256;28;20403;-77
2022/06/11 01:43:54;;;;;;;13.95;6.28;;;;;;;8.77;100.00;96134.19;5030876;28;20117;-77
2022/06/11 01:46:35;;;;;;;14.68;6.53;;;;;;;8.75;100.00;96141.53;5030031;28;20064;-76
2022/06/11 01:49:07;;;;;;;14.23;6.85;;;;;;;8.78;100.00;96138.41;5021434;28;20045;-77
2022/06/11 01:51:43;;;;;;;11.25;6.45;;;;;;;8.78;100.00;96137.63;5023248;28;20038;-75
2022/06/11 01:54:17;;;;;;;13.02;6.63;;;;;;;8.78;100.00;96138.41;5022234;28;20072;-75
2022/06/11 01:57:10;;;;;;;12.63;6.15;;;;;;;8.77;100.00;96136.81;5029239;28;20060;-75
2022/06/11 01:59:49;;;;;;;15.80;6.15;;;;;;;8.77;100.00;96136.81;5025509;28;20425;-74
2022/06/11 02:02:43;;;;;;;17.17;6.97;;;;;;;8.71;100.00;96135.16;5027117;28;20046;-76
2022/06/11 02:05:23;;;;;;;12.82;6.32;;;;;;;8.68;100.00;96133.03;5029819;28;20129;-76
2022/06/11 02:08:02;;;;;;;10.70;6.13;;;;;;;8.63;100.00;96135.56;5027800;28;20050;-76
2022/06/11 02:10:39;;;;;;;12.93;6.80;;;;;;;8.62;100.00;96136.59;5021705;28;20094;-75
2022/06/11 02:13:26;;;;;;;11.38;6.47;;;;;;;8.63;100.00;96135.56;5027655;28;20096;-75
2022/06/11 02:16:00;;;;;;;13.07;6.45;;;;;;;8.59;100.00;96134.47;5029411;28;20126;-75
2022/06/11 02:18:27;;;;;;;15.27;7.05;;;;;;;8.61;100.00;96137.66;5024781;28;20507;-75
2022/06/11 02:21:05;;;;;;;14.55;6.78;;;;;;;8.60;100.00;96136.06;5019481;28;20050;-75
2022/06/11 02:23:43;;;;;;;12.80;6.47;;;;;;;8.55;100.00;96141.22;5024862;28;20046;-75
2022/06/11 02:26:13;;;;;;;13.07;6.63;;;;;;;8.52;100.00;96139.06;5027752;28;20132;-75
2022/06/11 02:28:43;;;;;;;15.43;6.32;;;;;;;8.45;100.00;96145.28;5024503;28;20048;-75
2022/06/11 02:31:12;;;;;;;11.93;6.65;;;;;;;8.43;100.00;96147.34;5023035;28;20057;-75
2022/06/11 02:33:37;;;;;;;11.23;6.90;;;;;;;8.45;100.00;96155.78;5029166;28;20495;-75
2022/06/11 02:36:12;;;;;;;10.73;6.35;;;;;;;8.43;100.00;96151.78;5029362;28;20068;-75
2022/06/11 02:38:38;;;;;;;11.63;6.63;;;;;;;8.41;100.00;96152.00;5027733;28;20116;-75
2022/06/11 02:41:09;;;;;;;14.70;7.15;;;;;;;8.44;100.00;96162.06;5029658;28;20573;-75
2022/06/11 02:43:35;;;;;;;14.43;6.40;;;;;;;8.48;100.00;96155.31;5028422;28;20068;-76
2022/06/11 02:46:40;;;;;;;12.75;5.85;;;;;;;8.44;100.00;96159.44;5029853;28;20103;-75
2022/06/11 02:48:46;;;;;;;12.95;6.03;;;;;;;8.37;100.00;96169.25;5028601;28;20091;-75
2022/06/11 02:51:12;;;;;;;12.38;6.38;;;;;;;8.36;100.00;96162.44;5026454;28;20037;-75
2022/06/11 02:53:37;;;;;;;12.27;6.88;;;;;;;8.35;100.00;96166.09;5027205;28;20458;-75
2022/06/11 02:56:03;;;;;;;10.52;6.15;;;;;;;8.32;100.00;96171.81;5027787;28;20045;-75
2022/06/11 02:58:29;;;;;;;10.88;5.95;;;;;;;8.38;100.00;96170.84;5024403;28;20092;-75
2022/06/11 03:00:54;;;;;;;11.93;5.78;;;;;;;8.36;100.00;96172.94;5028164;28;20484;-75
2022/06/11 03:03:22;;;;;;;13.73;6.15;;;;;;;8.35;100.00;96171.34;5021165;28;20041;-75
2022/06/11 03:05:47;;;;;;;10.82;5.95;;;;;;;8.35;100.00;96179.22;5029469;28;20044;-75
2022/06/11 03:08:12;;;;;;;11.65;6.05;;;;;;;8.37;100.00;96171.88;5028257;28;20117;-75
2022/06/11 03:10:38;;;;;;;10.43;6.10;;;;;;;8.35;100.00;96171.34;5026017;28;20108;-75
2022/06/11 03:13:04;;;;;;;15.07;6.20;;;;;;;8.33;100.00;96176.00;5026591;28;20498;-75
2022/06/11 03:15:30;;;;;;;11.50;6.07;;;;;;;8.28;100.00;96175.94;5028746;28;20041;-77
2022/06/11 03:17:57;;;;;;;9.40;5.60;;;;;;;8.25;100.00;96186.91;5028021;28;20207;-77
2022/06/11 03:20:27;;;;;;;11.45;6.00;;;;;;;8.20;100.00;96178.94;5024908;28;20132;-76
2022/06/11 03:22:52;;;;;;;14.82;6.45;;;;;;;8.21;100.00;96185.78;5029406;28;20120;-77
2022/06/11 03:25:18;;;;;;;14.07;6.70;;;;;;;8.21;100.00;96186.56;5028004;28;20095;-77
2022/06/11 03:27:44;;;;;;;13.48;6.22;;;;;;;8.14;100.00;96186.72;5026799;28;20045;-77
2022/06/11 03:30:12;;;;;;;12.50;6.43;;;;;;;8.17;100.00;96180.22;5022775;28;20462;-77
2022/06/11 03:32:38;;;;;;;10.88;5.90;;;;;;;8.14;100.00;96186.72;5023692;28;20046;-77
2022/06/11 03:35:05;;;;;;;13.05;6.22;;;;;;;8.16;100.00;96189.13;5026065;28;20049;-76
2022/06/11 03:37:31;;;;;;;12.32;6.40;;;;;;;8.14;100.00;96178.84;5022062;28;20095;-75
2022/06/11 03:39:57;;;;;;;11.02;6.13;;;;;;;8.22;100.00;96192.63;5027429;28;20423;-75
2022/06/11 03:42:22;;;;;;;9.73;5.97;;;;;;;8.29;100.00;96195.91;5022922;28;20057;-75
2022/06/11 03:44:48;;;;;;;12.75;6.03;;;;;;;8.31;100.00;96196.44;5027748;28;20095;-76
2022/06/11 03:47:13;;;;;;;10.07;6.07;;;;;;;8.27;100.00;96200.56;5028320;28;20041;-76
2022/06/11 03:49:39;;;;;;;14.52;6.55;;;;;;;8.32;100.00;96203.28;5028105;28;20064;-76
2022/06/11 03:52:06;;;;;;;8.95;5.70;;;;;;;8.32;100.00;96203.28;5025479;28;20037;-76
2022/06/11 03:54:32;;;;;;;15.23;6.28;;;;;;;8.42;100.00;96203.44;5019677;28;20038;-75
2022/06/11 03:56:57;;;;;;;9.80;5.85;;;;;;;8.37;100.00;96205.97;5019429;28;20049;-75
2022/06/11 03:59:23;;;;;;;9.70;5.97;;;;;;;8.42;100.00;96211.31;5026879;28;20400;-75
2022/06/11 04:01:50;;;;;;;13.88;6.50;;;;;;;8.43;100.00;96204.22;5027432;28;20049;-76
2022/06/11 04:04:19;;;;;;;10.30;6.10;;;;;;;8.43;100.00;96207.66;5028095;28;20499;-76
2022/06/11 04:06:57;;;;;;;10.77;5.75;;;;;;;8.43;100.00;96215.53;5027906;28;20045;-76
2022/06/11 04:09:25;;;;;;;12.52;6.00;;;;;;;8.46;100.00;96209.84;5027579;28;20041;-76
2022/06/11 04:11:50;;;;;;;12.65;6.10;;;;;;;8.47;100.00;96211.41;5024812;28;20050;-76
2022/06/11 04:14:16;;;;;;;10.95;6.00;;;;;;;8.52;100.00;96204.66;5016148;28;20038;-76
2022/06/11 04:16:44;;;;;;;11.10;6.05;;;;;;;8.60;100.00;96214.75;5034524;28;20053;-75
2022/06/11 04:19:17;;;;;;;11.93;6.55;;;;;;;8.58;100.00;96222.09;5028299;28;20460;-76
2022/06/11 04:21:43;;;;;;;11.50;6.88;;;;;;;8.67;100.00;96218.03;5019978;28;20041;-75
2022/06/11 04:24:10;;;;;;;11.20;6.13;;;;;;;8.80;100.00;96219.53;5028371;28;20152;-75
2022/06/11 04:26:39;;;;;;;11.00;5.72;;;;;;;8.90;100.00;96218.88;5027952;28;20033;-76
2022/06/11 04:29:08;;;;;;;14.95;6.72;;;;;;;9.07;100.00;96229.38;5023518;28;20044;-75
2022/06/11 04:31:35;;;;;;;13.73;6.40;;;;;;;9.14;100.00;96225.53;5018012;28;20091;-75
2022/06/11 04:34:01;;;;;;;10.45;5.88;;;;;;;9.14;100.00;96220.25;5025854;28;20045;-76
2022/06/11 04:36:29;;;;;;;9.98;5.78;;;;;;;9.18;100.00;96221.38;5028916;28;20618;-74
2022/06/11 04:38:55;;;;;;;12.95;6.25;;;;;;;9.32;100.00;96226.25;5030827;28;20048;-75
2022/06/11 04:41:22;;;;;;;11.40;6.55;;;;;;;9.38;100.00;96220.06;5031487;28;20057;-76
2022/06/11 04:43:48;;;;;;;12.93;6.85;;;;;;;9.57;100.00;96228.44;5029136;28;20483;-75
2022/06/11 04:46:14;;;;;;;10.90;6.70;;;;;;;9.77;100.00;96230.50;5031329;28;20053;-76
2022/06/11 04:48:40;;;;;;;12.02;6.60;;;;;;;9.83;100.00;96223.47;5031516;28;20525;-75
2022/06/11 04:51:07;;;;;;;13.15;7.10;;;;;;;10.04;100.00;96222.63;5034440;28;20145;-75
2022/06/11 04:53:32;;;;;;;13.10;6.55;;;;;;;10.10;100.00;96220.84;5026719;28;20046;-76
2022/06/11 04:55:58;;;;;;;10.43;6.35;;;;;;;10.11;100.00;96217.16;5022269;28;20581;-76
2022/06/11 04:58:23;;;;;;;12.43;5.97;;;;;;;10.20;100.00;96220.94;5030898;28;20487;-76
2022/06/11 05:00:49;;;;;;;10.18;6.18;;;;;;;10.22;100.00;96232.00;5028865;28;20503;-75
2022/06/11 05:03:15;;;;;;;12.38;6.43;;;;;;;10.25;100.00;96229.94;5031702;28;20068;-75
2022/06/11 05:05:41;;;;;;;11.82;6.25;;;;;;;10.31;100.00;96240.22;5029216;28;20527;-75
2022/06/11 05:08:08;;;;;;;13.48;6.28;;;;;;;10.41;100.00;96239.56;5022978;28;20574;-75
2022/06/11 05:10:34;;;;;;;12.68;6.18;;;;;;;10.49;100.00;96233.06;5024632;28;20080;-76
2022/06/11 05:13:02;;;;;;;12.88;6.18;;;;;;;10.65;100.00;96236.59;5025509;28;20045;-76
2022/06/11 05:15:28;;;;;;;13.75;6.68;;;;;;;10.69;100.00;96237.69;5022193;28;20107;-76
2022/06/11 05:17:53;;;;;;;12.63;6.82;;;;;;;10.83;100.00;96238.84;5031300;28;20499;-76
2022/06/11 05:20:20;;;;;;;14.30;6.70;;;;;;;10.87;100.00;96234.66;5029299;28;20046;-76
2022/06/11 05:22:46;;;;;;;12.05;6.38;;;;;;;10.90;100.00;96236.81;5026229;28;20046;-75
2022/06/11 05:25:14;;;;;;;10.07;6.50;;;;;;;10.96;100.00;96236.81;5028164;28;20072;-75
2022/06/11 05:27:41;;;;;;;10.18;5.50;;;;;;;11.22;100.00;96232.50;5030891;28;20514;-75
2022/06/11 05:30:15;;;;;;;12.90;6.32;;;;;;;11.49;100.00;96242.91;5025567;28;20044;-75
2022/06/11 05:32:42;;;;;;;9.68;5.88;;;;;;;11.54;100.00;96252.69;5026022;28;20045;-75
2022/06/11 05:35:11;;;;;;;11.15;5.85;;;;;;;11.68;100.00;96234.53;5032878;28;20037;-77
2022/06/11 05:37:36;;;;;;;12.68;5.82;;;;;;;11.82;100.00;96233.00;5031253;28;20045;-77
2022/06/11 05:40:05;;;;;;;10.02;5.60;;;;;;;12.03;100.00;96243.66;5025539;28;20106;-76
2022/06/11 05:42:31;;;;;;;10.60;5.10;;;;;;;12.05;100.00;96244.19;5029449;28;20052;-76
2022/06/11 05:44:57;;;;;;;9.27;5.35;;;;;;;12.43;100.00;96242.16;5029647;28;20045;-75
2022/06/11 05:47:26;;;;;;;8.82;4.80;;;;;;;12.64;100.00;96233.19;5029176;28;20034;-75
2022/06/11 05:49:56;;;;;;;7.95;5.30;;;;;;;12.77;100.00;96245.06;5040800;28;20080;-77
2022/06/11 05:52:25;;;;;;;8.23;4.80;;;;;;;12.96;100.00;96249.81;5020190;28;20088;-77
2022/06/11 05:54:51;;;;;;;7.95;5.15;;;;;;;13.20;100.00;96244.72;5030147;28;20499;-75
2022/06/11 05:57:20;;;;;;;9.23;5.05;;;;;;;13.38;100.00;96245.28;5024514;28;20037;-76
2022/06/11 05:59:51;;;;;;;7.85;4.57;;;;;;;13.60;100.00;96245.72;5026716;28;20068;-76
2022/06/11 06:02:19;;;;;;;9.00;4.68;;;;;;;13.73;100.00;96246.19;5029320;28;20042;-78
2022/06/11 06:04:44;;;;;;;7.05;4.30;;;;;;;13.88;100.00;96251.44;5025063;28;22315;-81
2022/06/11 06:07:10;;;;;;;8.50;4.15;;;;;;;14.00;100.00;96246.59;5027956;28;20073;-77
2022/06/11 06:09:36;;;;;;;15.43;4.90;;;;;;;14.11;100.00;96247.34;5026787;28;20045;-77
2022/06/11 06:12:03;;;;;;;9.60;4.57;;;;;;;14.16;100.00;96249.16;5024862;28;20400;-77
2022/06/11 06:14:29;;;;;;;9.85;4.50;;;;;;;14.26;100.00;96254.38;5028313;28;20124;-77
2022/06/11 06:16:54;;;;;;;16.08;4.75;;;;;;;14.28;100.00;96246.97;5027271;28;20152;-77
2022/06/11 06:19:20;;;;;;;11.18;4.40;;;;;;;14.41;100.00;96250.06;5024828;28;20559;-77
2022/06/11 06:21:46;;;;;;;6.72;4.15;;;;;;;14.51;100.00;96255.28;5023884;28;20069;-76
2022/06/11 06:24:11;;;;;;;9.65;4.22;;;;;;;14.44;100.00;96244.22;5027829;28;20510;-80
2022/06/11 06:26:37;;;;;;;7.80;4.05;;;;;;;14.49;100.00;96252.13;5029452;28;20034;-76
2022/06/11 06:29:04;;;;;;;6.93;4.20;;;;;;;14.50;100.00;96241.25;5026516;28;20420;-75
2022/06/11 06:31:29;;;;;;;7.55;4.53;;;;;;;14.58;100.00;96250.47;5012824;28;20054;-76
2022/06/11 06:33:58;;;;;;;8.65;4.72;;;;;;;14.83;100.00;96256.69;5030894;28;20107;-75
2022/06/11 06:36:25;;;;;;;6.80;4.32;;;;;;;14.82;100.00;96249.78;5025379;28;20041;-77
2022/06/11 06:38:51;;;;;;;8.20;4.75;;;;;;;15.00;100.00;96246.44;5029173;28;20470;-75
2022/06/11 06:41:17;;;;;;;8.65;4.03;;;;;;;15.22;98.99;96247.84;5029823;28;20041;-77
2022/06/11 06:43:43;;;;;;;7.63;4.15;;;;;;;15.37;100.00;96258.28;5028735;28;20108;-76
2022/06/11 06:46:09;;;;;;;8.07;4.60;;;;;;;15.32;98.83;96253.03;5030401;28;20079;-76
2022/06/11 06:48:35;;;;;;;9.40;4.50;;;;;;;15.38;98.64;96257.19;5031219;28;20636;-77
2022/06/11 06:51:02;;;;;;;9.45;4.32;;;;;;;15.37;94.96;96258.28;5028751;28;20103;-76
2022/06/11 06:53:28;;;;;;;7.80;4.45;;;;;;;15.37;95.78;96260.13;5028838;28;20049;-76
2022/06/11 06:55:54;;;;;;;9.65;4.45;;;;;;;15.54;94.50;96254.38;5029152;28;20506;-77
2022/06/11 06:58:20;;;;;;;9.50;4.45;;;;;;;15.49;94.43;96254.47;5028803;28;20044;-77
2022/06/11 07:00:46;;;;;;;8.57;4.28;;;;;;;15.35;91.98;96252.47;5025672;28;20156;-76
2022/06/11 07:03:12;;;;;;;7.05;4.22;;;;;;;15.37;90.87;96250.34;5030809;28;20491;-79
2022/06/11 07:05:39;;;;;;;8.45;4.20;;;;;;;15.61;87.37;96249.53;5029573;28;20041;-75
2022/06/11 07:08:06;;;;;;;8.90;4.30;;;;;;;15.52;91.27;96251.25;5024889;28;20057;-76
2022/06/11 07:10:32;;;;;;;10.07;4.15;;;;;;;15.55;93.70;96253.31;5028455;28;20049;-76
2022/06/11 07:12:58;;;;;;;5.80;3.80;;;;;;;15.96;85.16;96250.22;5030318;28;20038;-76
2022/06/11 07:15:24;;;;;;;8.82;4.13;;;;;;;16.26;83.40;96248.19;5030670;28;20041;-76
2022/06/11 07:17:57;;;;;;;7.50;4.10;;;;;;;16.15;85.33;96252.06;5024280;28;20064;-75
2022/06/11 07:20:27;;;;;;;7.55;4.70;;;;;;;15.99;86.36;96252.31;5029493;28;20044;-74
2022/06/11 07:22:59;;;;;;;7.15;3.92;;;;;;;16.47;77.60;96243.38;5018458;28;20045;-76
2022/06/11 07:25:25;;;;;;;6.63;4.00;;;;;;;16.63;74.13;96251.91;5027031;28;20068;-76
2022/06/11 07:28:04;;;;;;;5.75;3.95;;;;;;;16.54;77.25;96248.34;5029787;28;20068;-75
2022/06/11 07:30:35;;;;;;;6.00;4.00;;;;;;;16.74;76.06;96250.69;5028058;28;20040;-74
2022/06/11 07:33:10;;;;;;;7.88;4.00;;;;;;;16.65;82.08;96249.78;5017394;28;20049;-76
2022/06/11 07:35:36;;;;;;;9.63;4.47;;;;;;;16.89;79.82;96248.88;5029032;28;20133;-76
2022/06/11 07:38:08;;;;;;;9.73;4.55;;;;;;;16.64;80.75;96248.19;5024810;28;20052;-76
2022/06/11 07:40:33;;;;;;;8.32;4.47;;;;;;;16.73;75.64;96246.44;5027602;28;20504;-75
2022/06/11 07:42:59;;;;;;;7.93;4.65;;;;;;;16.65;82.60;96247.13;5026802;28;20053;-75
2022/06/11 07:45:24;;;;;;;8.55;4.60;;;;;;;16.64;84.98;96248.19;5027889;28;20038;-75
2022/06/11 07:47:56;;;;;;;10.55;4.70;;;;;;;16.63;86.39;96241.28;5028013;28;20041;-76
2022/06/11 07:50:34;;;;;;;8.35;4.70;;;;;;;16.89;80.76;96244.34;5013122;28;20041;-76
2022/06/11 07:53:00;;;;;;;11.25;4.95;;;;;;;16.67;83.75;96242.28;5023533;28;20046;-75
2022/06/11 07:55:28;;;;;;;10.90;4.93;;;;;;;16.50;85.28;96247.34;5026601;28;20033;-75
2022/06/11 07:57:55;;;;;;;9.35;4.85;;;;;;;17.04;79.60;96245.97;5022979;28;20045;-75
2022/06/11 08:00:28;;;;;;;7.85;4.30;;;;;;;17.06;77.88;96241.13;5028490;28;20095;-76
2022/06/11 08:02:54;;;;;;;7.63;4.53;;;;;;;17.39;78.51;96245.63;5029400;28;20053;-75
2022/06/11 08:05:21;;;;;;;7.32;4.75;;;;;;;17.62;76.94;96238.53;5028915;28;20064;-76
2022/06/11 08:07:48;;;;;;;7.82;4.22;;;;;;;17.86;74.61;96242.84;5033557;28;20491;-76
2022/06/11 08:10:16;;;;;;;9.07;4.65;;;;;;;17.68;75.27;96247.97;5027342;28;20041;-76
2022/06/11 08:12:41;;;;;;;8.30;4.45;;;;;;;17.67;77.87;96246.41;5031557;28;20144;-77
2022/06/11 08:15:08;;;;;;;7.55;4.95;;;;;;;17.68;75.71;96242.66;5033762;28;20113;-76
2022/06/11 08:17:34;;;;;;;9.07;4.93;;;;;;;17.52;79.16;96241.38;5025449;28;20045;-75
2022/06/11 08:20:00;;;;;;;9.23;4.97;;;;;;;17.32;78.51;96246.00;5030741;28;20115;-76
2022/06/11 08:22:25;;;;;;;7.43;4.90;;;;;;;17.22;81.52;96240.88;5032812;28;20474;-76
2022/06/11 08:24:51;;;;;;;7.82;5.03;;;;;;;17.78;75.53;96242.44;5030153;28;20041;-75
2022/06/11 08:27:17;;;;;;;7.75;4.93;;;;;;;17.77;77.22;96246.22;5032437;28;20037;-77
2022/06/11 08:29:43;;;;;;;8.05;4.47;;;;;;;18.04;72.48;96249.94;5031937;28;20144;-76
2022/06/11 08:32:10;;;;;;;10.82;4.93;;;;;;;18.15;75.72;96243.31;5032733;28;20045;-75
2022/06/11 08:34:38;;;;;;;10.52;4.90;;;;;;;18.03;75.58;96253.72;5031622;28;20071;-76
2022/06/11 08:37:04;;;;;;;10.60;4.82;;;;;;;17.75;72.80;96248.38;5032778;28;20080;-76
2022/06/11 08:39:29;;;;;;;11.02;5.32;;;;;;;18.04;73.06;96247.28;5030551;28;20120;-76
2022/06/11 08:41:56;;;;;;;8.55;5.13;;;;;;;18.56;67.76;96238.16;5028291;28;20104;-77
2022/06/11 08:44:22;;;;;;;7.80;5.18;;;;;;;18.74;65.43;96244.41;5032677;28;20116;-77
2022/06/11 08:46:50;;;;;;;7.93;4.63;;;;;;;18.54;68.83;96243.78;5032355;28;20033;-76
2022/06/11 08:49:35;;;;;;;6.65;4.60;;;;;;;18.65;69.50;96252.34;5036046;28;20042;-77
2022/06/11 08:52:15;;;;;;;9.57;5.18;;;;;;;19.01;69.24;96254.16;5028807;28;20050;-77
2022/06/11 08:54:44;;;;;;;8.40;5.38;;;;;;;18.90;65.81;96248.28;5034720;28;20052;-77
2022/06/11 08:57:33;;;;;;;11.40;5.38;;;;;;;18.95;67.10;96242.03;5034361;28;20099;-74
2022/06/11 09:00:17;;;;;;;6.68;4.97;;;;;;;18.97;67.11;96245.19;5030814;28;20075;-73
2022/06/11 09:02:58;;;;;;;7.78;5.35;;;;;;;18.63;65.65;96241.16;5034763;28;20411;-73
2022/06/11 09:05:59;;;;;;;8.52;4.90;;;;;;;18.58;65.51;96242.09;5031717;28;20543;-72
2022/06/11 09:08:51;;;;;;;10.07;5.00;;;;;;;18.55;66.08;96241.88;5036102;28;20052;-73
2022/06/11 09:11:40;;;;;;;9.45;4.72;;;;;;;18.74;66.61;96239.84;5016346;28;20300;-73
2022/06/11 09:14:05;;;;;;;8.32;5.10;;;;;;;18.78;64.17;96232.03;4995854;28;20123;-73
2022/06/11 09:16:46;;;;;;;8.50;4.57;;;;;;;18.94;64.72;96240.47;5030345;28;20042;-73
2022/06/11 09:19:44;;;;;;;11.73;5.00;;;;;;;19.42;66.23;96226.41;5028502;28;20517;-73
2022/06/11 09:22:47;;;;;;;8.18;5.05;;;;;;;19.15;67.85;96228.19;5025365;28;20041;-73
2022/06/11 09:25:23;;;;;;;9.73;4.90;;;;;;;19.18;70.60;96232.91;5023027;28;20750;-73
2022/06/11 09:28:00;;;;;;;12.48;5.00;;;;;;;19.13;70.52;96235.69;5028657;28;20499;-73
2022/06/11 09:30:53;;;;;;;11.68;4.93;;;;;;;19.46;66.64;96221.25;5022453;28;20046;-73
2022/06/11 09:33:23;;;;;;;9.23;5.10;;;;;;;19.43;67.86;96227.97;5031943;28;20044;-73
2022/06/11 09:35:58;;;;;;;9.10;4.80;;;;;;;19.44;66.00;96231.44;5030100;28;20045;-73
2022/06/11 09:38:38;;;;;;;9.90;5.10;;;;;;;19.47;66.50;96228.94;5031372;28;20103;-73
2022/06/11 09:41:24;;;;;;;7.07;4.70;;;;;;;19.60;65.42;96232.59;5026071;28;20049;-73
2022/06/11 09:44:09;;;;;;;7.47;4.88;;;;;;;19.75;64.10;96223.34;5030921;28;20034;-73
2022/06/11 09:46:44;;;;;;;8.90;5.10;;;;;;;20.23;62.39;96225.19;5030918;28;20065;-73
2022/06/11 09:49:21;;;;;;;9.57;4.75;;;;;;;20.37;63.12;96218.91;5030834;28;20068;-73
2022/06/11 09:52:05;;;;;;;7.60;4.53;;;;;;;20.46;63.41;96222.38;5021341;28;20042;-73
2022/06/11 09:55:08;;;;;;;7.75;4.38;;;;;;;20.80;61.38;96222.66;5031064;28;20053;-72
2022/06/11 09:58:05;;;;;;;6.00;4.25;;;;;;;20.82;59.85;96215.91;4997332;28;20053;-73
2022/06/11 10:00:43;;;;;;;8.30;4.75;;;;;;;20.77;60.02;96224.06;5018103;28;20045;-73
2022/06/11 10:06:05;;;;;;;8.27;4.30;;;;;;;21.29;57.92;96223.94;5031604;28;20038;-73
2022/06/11 10:08:52;;;;;;;6.55;4.40;;;;;;;21.11;55.35;96219.75;5027631;28;20050;-73
2022/06/11 10:11:24;;;;;;;9.50;4.50;;;;;;;21.77;53.00;96215.88;5024200;28;20115;-73
2022/06/11 10:13:56;;;;;;;6.47;4.30;;;;;;;21.55;53.87;96220.41;5026504;28;20037;-73
2022/06/11 10:16:37;;;;;;;7.10;4.32;;;;;;;21.63;54.62;96216.88;5031886;28;20543;-73
2022/06/11 10:19:28;;;;;;;7.75;4.40;;;;;;;21.58;55.14;96214.41;5046471;28;20053;-73
2022/06/11 10:22:17;;;;;;;6.47;4.07;;;;;;;21.69;52.11;96216.69;5022312;28;20060;-73
2022/06/11 10:25:03;;;;;;;7.63;3.97;;;;;;;22.00;51.52;96212.91;5029232;28;20038;-73
2022/06/11 10:27:34;;;;;;;7.13;4.35;;;;;;;22.08;48.22;96212.84;5024977;28;20092;-74
2022/06/11 10:30:12;;;;;;;7.00;4.63;;;;;;;22.31;49.87;96217.84;5016077;28;20053;-73
2022/06/11 10:32:42;;;;;;;7.32;4.70;;;;;;;22.41;49.81;96216.72;5025446;28;20498;-73
2022/06/11 10:35:10;;;;;;;7.18;4.10;;;;;;;22.42;48.68;96212.91;5029957;28;20038;-73
2022/06/11 10:37:43;;;;;;;6.38;4.03;;;;;;;22.82;48.90;96215.06;5026049;28;20118;-73
2022/06/11 10:40:23;;;;;;;6.78;4.10;;;;;;;22.75;43.61;96220.19;5016923;28;20050;-73
2022/06/11 10:43:13;;;;;;;5.70;3.90;;;;;;;23.16;47.83;96215.84;5019633;28;20093;-73
2022/06/11 10:45:39;;;;;;;6.80;4.10;;;;;;;23.69;45.11;96208.72;5030481;28;20056;-73
2022/06/11 10:48:14;;;;;;;5.30;3.88;;;;;;;23.79;48.52;96202.09;5030079;28;20045;-74
2022/06/11 10:50:40;;;;;;;9.88;4.38;;;;;;;23.75;45.40;96201.19;5026847;28;20484;-73
2022/06/11 10:53:19;;;;;;;6.13;4.15;;;;;;;23.78;46.25;96205.13;5028491;28;20096;-73
2022/06/11 10:55:50;;;;;;;7.38;4.28;;;;;;;23.87;48.07;96206.56;5030209;28;20049;-73
2022/06/11 10:58:33;;;;;;;8.80;4.63;;;;;;;24.61;45.07;96197.56;5029524;28;20046;-73
2022/06/11 11:01:24;;;;;;;6.93;4.47;;;;;;;24.48;44.36;96201.38;5029416;28;20049;-73
2022/06/11 11:03:56;;;;;;;8.50;4.82;;;;;;;23.39;46.61;96199.31;5029467;28;20053;-73
2022/06/11 11:06:34;;;;;;;8.95;4.40;;;;;;;22.86;48.34;96205.25;5030431;28;20041;-73
2022/06/11 11:09:06;;;;;;;8.38;4.35;;;;;;;22.83;48.52;96197.88;5029233;28;20095;-74
2022/06/11 11:11:52;;;;;;;8.50;4.60;;;;;;;22.70;48.52;96194.38;5019695;28;20057;-73
2022/06/11 11:14:40;;;;;;;8.85;4.75;;;;;;;22.81;49.70;96205.44;5029598;28;20403;-73
2022/06/11 11:17:26;;;;;;;5.68;4.05;;;;;;;22.51;51.49;96199.44;5023176;28;20049;-73
2022/06/11 11:22:54;;;;;;;6.45;4.32;;;;;;;22.39;50.22;96192.13;5027501;28;20037;-73
2022/06/11 11:25:28;;;;;;;5.55;4.07;;;;;;;22.44;52.47;96197.28;5020323;28;20054;-73
2022/06/11 11:27:54;;;;;;;9.85;4.82;;;;;;;23.14;50.45;96191.22;5027736;28;20057;-73
2022/06/11 11:30:43;;;;;;;7.35;4.20;;;;;;;23.95;46.61;96199.53;5020047;28;20123;-73
2022/06/11 11:33:32;;;;;;;9.25;3.95;;;;;;;24.34;42.16;96186.41;5028478;28;20045;-73
2022/06/11 11:36:09;;;;;;;8.40;4.55;;;;;;;24.88;43.43;96189.78;5021783;28;20499;-73
2022/06/11 11:38:36;;;;;;;6.43;4.00;;;;;;;25.24;43.08;96190.66;5026485;28;20140;-73
2022/06/11 11:41:03;;;;;;;5.50;3.65;;;;;;;25.82;39.24;96186.63;5044587;28;20125;-73
2022/06/11 11:43:41;;;;;;;6.60;3.70;;;;;;;26.84;41.62;96184.81;5027797;28;20099;-73
2022/06/11 11:46:14;;;;;;;5.88;3.90;;;;;;;26.39;40.53;96182.44;5028362;28;20124;-73
2022/06/11 11:48:52;;;;;;;6.15;3.80;;;;;;;26.72;36.87;96178.47;5028593;28;20046;-73
2022/06/11 11:51:33;;;;;;;5.85;3.70;;;;;;;26.99;38.24;96165.03;5028480;28;20597;-73
2022/06/11 11:54:03;;;;;;;6.82;4.00;;;;;;;27.14;36.62;96177.63;5028780;28;20049;-74